Time;durP1;ratioP1;P1;durP2;ratioP2;P2;SDS_P1;SDS_P2;PMS_P1;PMS_P2;Temp;Humidity;BMP_temperature;BMP_pressure;BME280_temperature;BME280_humidity;BME280_pressure;Samples;Min_cycle;Max_cycle;Signal;HPM_P1;HPM_P2
2023/03/21 00:01:37;;;;;;;;;17.67;16.67;;;;;;;;5062365;28;45585;-60
2023/03/21 00:04:03;;;;;;;;;15.33;15.33;;;;;;;;5040772;28;45550;-60
2023/03/21 00:06:31;;;;;;;;;16.67;15.67;;;;;;;;5060278;28;46272;-60
2023/03/21 00:08:56;;;;;;;;;16.67;16.67;;;;;;;;5071634;28;45448;-60
2023/03/21 00:11:23;;;;;;;;;18.00;18.00;;;;;;;;5070134;27;45603;-60
2023/03/21 00:13:48;;;;;;;;;16.33;16.00;;;;;;;;5069598;28;45535;-60
2023/03/21 00:16:15;;;;;;;;;16.33;15.33;;;;;;;;5052517;27;46255;-60
2023/03/21 00:18:42;;;;;;;;;17.00;17.00;;;;;;;;5067592;27;45422;-60
2023/03/21 00:21:08;;;;;;;;;18.67;17.00;;;;;;;;5073144;27;45414;-60
2023/03/21 00:23:34;;;;;;;;;17.67;16.00;;;;;;;;5066563;28;45517;-60
2023/03/21 00:26:00;;;;;;;;;18.67;17.67;;;;;;;;5048727;28;45500;-60
2023/03/21 00:28:25;;;;;;;;;16.00;16.00;;;;;;;;5073161;27;45422;-60
2023/03/21 00:30:55;;;;;;;;;15.00;15.00;;;;;;;;5058948;28;45536;-60
2023/03/21 00:33:20;;;;;;;;;16.00;15.00;;;;;;;;5073124;27;45550;-60
2023/03/21 00:35:46;;;;;;;;;15.33;15.33;;;;;;;;5066591;27;45562;-60
2023/03/21 00:38:12;;;;;;;;;17.00;13.00;;;;;;;;5074223;27;45445;-60
2023/03/21 00:40:37;;;;;;;;;12.33;12.33;;;;;;;;5076326;27;45520;-60
2023/03/21 00:43:02;;;;;;;;;20.33;15.33;;;;;;;;5075890;27;45423;-60
2023/03/21 00:45:28;;;;;;;;;17.67;15.67;;;;;;;;5072461;27;45643;-60
2023/03/21 00:47:53;;;;;;;;;15.00;15.00;;;;;;;;5068944;27;45439;-60
2023/03/21 00:50:18;;;;;;;;;16.67;14.67;;;;;;;;5062168;28;45631;-60
2023/03/21 00:52:43;;;;;;;;;16.33;16.33;;;;;;;;5076128;27;45548;-60
2023/03/21 00:55:12;;;;;;;;;16.33;15.00;;;;;;;;5075373;27;45515;-60
2023/03/21 00:57:37;;;;;;;;;15.00;15.00;;;;;;;;5054118;28;46074;-60
2023/03/21 01:00:05;;;;;;;;;11.33;11.33;;;;;;;;5068590;27;45391;-60
2023/03/21 01:02:30;;;;;;;;;17.33;16.67;;;;;;;;5075622;28;45571;-60
2023/03/21 01:04:56;;;;;;;;;16.33;13.33;;;;;;;;5075586;27;46346;-60
2023/03/21 01:07:21;;;;;;;;;15.67;15.33;;;;;;;;5062228;27;45513;-60
2023/03/21 01:09:46;;;;;;;;;13.00;13.00;;;;;;;;5073667;28;45652;-60
2023/03/21 01:12:11;;;;;;;;;14.00;14.00;;;;;;;;5067219;27;45575;-60
2023/03/21 01:14:37;;;;;;;;;17.33;15.00;;;;;;;;5071905;28;45494;-60
2023/03/21 01:17:02;;;;;;;;;19.33;18.00;;;;;;;;5054335;28;45598;-60
2023/03/21 01:19:28;;;;;;;;;14.67;14.00;;;;;;;;5062767;27;45444;-60
2023/03/21 01:21:53;;;;;;;;;14.67;14.00;;;;;;;;5075642;27;45538;-60
2023/03/21 01:24:18;;;;;;;;;7.33;5.67;;;;;;;;5075262;27;45582;-60
2023/03/21 01:26:44;;;;;;;;;16.67;16.00;;;;;;;;5074330;28;45527;-60
2023/03/21 01:29:10;;;;;;;;;13.00;12.67;;;;;;;;5067190;28;45493;-60
2023/03/21 01:31:35;;;;;;;;;13.67;12.67;;;;;;;;5056677;28;45640;-60
2023/03/21 01:34:00;;;;;;;;;17.33;14.00;;;;;;;;5075189;27;45418;-60
2023/03/21 01:36:26;;;;;;;;;14.00;14.00;;;;;;;;5070735;27;45506;-60
2023/03/21 01:38:51;;;;;;;;;14.67;14.67;;;;;;;;5073322;27;45440;-60
2023/03/21 01:41:20;;;;;;;;;14.00;13.00;;;;;;;;5073513;27;45652;-60
2023/03/21 01:43:46;;;;;;;;;14.67;14.00;;;;;;;;5072569;27;45515;-60
2023/03/21 01:46:11;;;;;;;;;16.00;15.67;;;;;;;;5066549;27;45478;-60
2023/03/21 01:48:38;;;;;;;;;14.75;13.25;;;;;;;;5058815;28;45630;-60
2023/03/21 01:51:04;;;;;;;;;15.00;13.67;;;;;;;;5065897;28;45653;-61
2023/03/21 01:53:32;;;;;;;;;13.33;13.00;;;;;;;;5074999;27;46242;-60
2023/03/21 01:56:02;;;;;;;;;11.67;11.67;;;;;;;;5069898;27;45604;-60
2023/03/21 01:58:28;;;;;;;;;10.00;7.67;;;;;;;;5047868;28;45529;-61
2023/03/21 02:00:55;;;;;;;;;12.00;12.00;;;;;;;;5054268;28;45551;-60
2023/03/21 02:03:20;;;;;;;;;12.33;12.33;;;;;;;;5059995;28;45462;-61
2023/03/21 02:05:54;;;;;;;;;13.00;13.00;;;;;;;;5070135;28;45491;-61
2023/03/21 02:08:20;;;;;;;;;12.67;11.00;;;;;;;;5058337;28;45707;-60
2023/03/21 02:10:47;;;;;;;;;10.33;8.67;;;;;;;;5069672;28;45667;-61
2023/03/21 02:13:13;;;;;;;;;11.00;8.33;;;;;;;;5068979;27;45539;-61
2023/03/21 02:15:40;;;;;;;;;14.33;10.00;;;;;;;;5046273;28;45558;-60
2023/03/21 02:18:05;;;;;;;;;9.33;9.33;;;;;;;;5061442;28;45559;-61
2023/03/21 02:20:30;;;;;;;;;7.00;7.00;;;;;;;;5074886;27;45474;-61
2023/03/21 02:22:55;;;;;;;;;6.25;6.25;;;;;;;;5074821;27;45358;-61
2023/03/21 02:25:36;;;;;;;;;7.33;6.33;;;;;;;;5066036;27;46085;-61
2023/03/21 02:28:19;;;;;;;;;9.33;8.00;;;;;;;;5063474;27;45470;-61
2023/03/21 02:30:57;;;;;;;;;7.00;6.00;;;;;;;;5067898;28;45581;-60
2023/03/21 02:33:40;;;;;;;;;5.67;5.67;;;;;;;;5043039;28;46287;-60
2023/03/21 02:36:15;;;;;;;;;6.00;6.00;;;;;;;;5059995;28;45571;-61
2023/03/21 02:38:49;;;;;;;;;9.33;8.00;;;;;;;;5059844;28;45552;-61
2023/03/21 02:41:14;;;;;;;;;5.67;5.67;;;;;;;;5051668;28;45467;-60
2023/03/21 02:43:49;;;;;;;;;6.00;6.00;;;;;;;;5074159;28;46102;-60
2023/03/21 02:46:14;;;;;;;;;10.00;6.00;;;;;;;;5074663;27;45430;-61
2023/03/21 02:49:00;;;;;;;;;5.00;5.00;;;;;;;;5065721;28;45412;-61
2023/03/21 02:51:26;;;;;;;;;8.67;8.00;;;;;;;;5062690;27;45498;-61
2023/03/21 02:54:01;;;;;;;;;7.00;4.33;;;;;;;;5073269;27;45506;-60
2023/03/21 02:56:27;;;;;;;;;5.00;5.00;;;;;;;;5055756;28;45475;-61
2023/03/21 02:58:53;;;;;;;;;6.67;6.67;;;;;;;;5074361;27;45532;-60
2023/03/21 03:01:18;;;;;;;;;4.00;4.00;;;;;;;;5060971;28;45600;-60
2023/03/21 03:03:44;;;;;;;;;4.00;4.00;;;;;;;;5056952;28;46231;-61
2023/03/21 03:06:16;;;;;;;;;5.67;5.67;;;;;;;;5064274;27;45463;-61
2023/03/21 03:08:54;;;;;;;;;9.00;5.67;;;;;;;;5070767;27;45504;-61
2023/03/21 03:11:41;;;;;;;;;6.00;4.67;;;;;;;;5069530;28;45599;-61
2023/03/21 03:14:11;;;;;;;;;4.67;4.67;;;;;;;;5073033;27;46131;-60
2023/03/21 03:16:43;;;;;;;;;5.00;4.33;;;;;;;;5067139;27;45481;-60
2023/03/21 03:19:10;;;;;;;;;7.33;6.00;;;;;;;;5064218;27;45507;-61
2023/03/21 03:21:46;;;;;;;;;7.33;7.00;;;;;;;;5073919;27;45694;-61
2023/03/21 03:24:11;;;;;;;;;5.67;5.67;;;;;;;;5037210;28;45524;-61
2023/03/21 03:26:52;;;;;;;;;6.67;6.67;;;;;;;;5063747;28;45474;-60
2023/03/21 03:29:19;;;;;;;;;10.33;10.33;;;;;;;;5073778;27;45489;-60
2023/03/21 03:31:54;;;;;;;;;11.33;10.00;;;;;;;;5059067;28;46032;-60
2023/03/21 03:34:21;;;;;;;;;9.00;9.00;;;;;;;;5069905;28;45529;-61
2023/03/21 03:36:55;;;;;;;;;10.00;9.00;;;;;;;;5053670;27;45736;-60
2023/03/21 03:39:22;;;;;;;;;6.33;6.33;;;;;;;;5060325;27;45503;-61
2023/03/21 03:41:52;;;;;;;;;7.00;7.00;;;;;;;;5073623;27;45427;-60
2023/03/21 03:44:17;;;;;;;;;7.67;7.00;;;;;;;;5060585;28;45582;-61
2023/03/21 03:46:45;;;;;;;;;5.67;5.67;;;;;;;;5068976;28;45575;-61
2023/03/21 03:49:14;;;;;;;;;5.50;5.50;;;;;;;;5067669;27;45437;-61
2023/03/21 03:51:59;;;;;;;;;6.00;6.00;;;;;;;;5073649;27;45620;-61
2023/03/21 03:54:33;;;;;;;;;6.00;6.00;;;;;;;;5072922;27;46158;-61
2023/03/21 03:56:58;;;;;;;;;5.67;5.67;;;;;;;;5070084;27;45608;-61
2023/03/21 03:59:24;;;;;;;;;5.00;5.00;;;;;;;;5065735;28;45460;-61
2023/03/21 04:01:49;;;;;;;;;4.00;4.00;;;;;;;;5045302;28;45581;-61
2023/03/21 04:04:15;;;;;;;;;5.00;5.00;;;;;;;;5059135;28;46390;-60
2023/03/21 04:06:41;;;;;;;;;4.67;4.33;;;;;;;;5057029;27;45513;-61
2023/03/21 04:09:07;;;;;;;;;6.67;5.33;;;;;;;;5072932;27;45541;-60
2023/03/21 04:11:32;;;;;;;;;5.00;5.00;;;;;;;;5055534;27;45360;-60
2023/03/21 04:13:58;;;;;;;;;6.00;6.00;;;;;;;;5054408;28;47035;-60
2023/03/21 04:16:23;;;;;;;;;9.00;9.00;;;;;;;;5076626;27;45594;-61
2023/03/21 04:18:48;;;;;;;;;3.67;3.67;;;;;;;;5050477;28;45487;-61
2023/03/21 04:21:13;;;;;;;;;7.00;5.00;;;;;;;;5076896;27;45476;-61
2023/03/21 04:23:39;;;;;;;;;5.00;5.00;;;;;;;;5076390;27;46278;-61
2023/03/21 04:26:05;;;;;;;;;5.00;5.00;;;;;;;;5072074;27;45505;-61
2023/03/21 04:28:32;;;;;;;;;4.67;4.67;;;;;;;;5076829;27;45352;-61
2023/03/21 04:30:57;;;;;;;;;4.33;4.00;;;;;;;;5076236;27;45673;-60
2023/03/21 04:33:31;;;;;;;;;5.00;5.00;;;;;;;;5061826;28;45550;-60
2023/03/21 04:35:57;;;;;;;;;5.67;5.67;;;;;;;;5069464;27;45529;-60
2023/03/21 04:38:23;;;;;;;;;3.00;3.00;;;;;;;;5057188;28;45522;-60
2023/03/21 04:40:49;;;;;;;;;6.00;6.00;;;;;;;;5076477;27;45427;-61
2023/03/21 04:43:14;;;;;;;;;4.00;4.00;;;;;;;;5076552;27;45420;-60
2023/03/21 04:45:39;;;;;;;;;7.00;7.00;;;;;;;;5075382;27;45479;-60
2023/03/21 04:48:05;;;;;;;;;5.00;5.00;;;;;;;;5075285;27;45552;-60
2023/03/21 04:50:31;;;;;;;;;6.00;6.00;;;;;;;;5065916;27;45383;-61
2023/03/21 04:52:56;;;;;;;;;4.67;4.67;;;;;;;;5069680;28;45549;-60
2023/03/21 04:55:21;;;;;;;;;7.00;5.67;;;;;;;;5064870;27;45560;-61
2023/03/21 04:57:47;;;;;;;;;7.00;7.00;;;;;;;;5060527;27;45474;-60
2023/03/21 05:00:13;;;;;;;;;5.33;5.33;;;;;;;;5061999;27;45555;-60
2023/03/21 05:02:39;;;;;;;;;5.50;5.50;;;;;;;;5071624;27;45444;-61
2023/03/21 05:05:04;;;;;;;;;5.00;5.00;;;;;;;;5075325;27;45419;-60
2023/03/21 05:07:31;;;;;;;;;7.00;6.00;;;;;;;;5062735;28;45458;-61
2023/03/21 05:09:56;;;;;;;;;6.00;5.00;;;;;;;;5073980;27;45626;-60
2023/03/21 05:12:22;;;;;;;;;5.00;5.00;;;;;;;;5075858;28;46311;-61
2023/03/21 05:14:47;;;;;;;;;5.00;5.00;;;;;;;;5057758;27;45685;-61
2023/03/21 05:17:14;;;;;;;;;5.00;5.00;;;;;;;;5072889;27;45543;-60
2023/03/21 05:19:40;;;;;;;;;5.00;5.00;;;;;;;;5073204;27;45524;-60
2023/03/21 05:22:07;;;;;;;;;5.33;5.00;;;;;;;;5073145;27;45560;-60
2023/03/21 05:24:32;;;;;;;;;7.00;5.67;;;;;;;;5074851;28;45521;-61
2023/03/21 05:27:01;;;;;;;;;5.33;5.33;;;;;;;;5068179;27;45494;-61
2023/03/21 05:29:27;;;;;;;;;4.00;4.00;;;;;;;;5075366;27;45463;-61
2023/03/21 05:31:52;;;;;;;;;6.00;6.00;;;;;;;;5064528;27;45534;-61
2023/03/21 05:34:18;;;;;;;;;10.00;6.33;;;;;;;;5072774;27;45470;-61
2023/03/21 05:36:43;;;;;;;;;6.33;5.33;;;;;;;;5075771;27;45396;-60
2023/03/21 05:39:08;;;;;;;;;7.33;7.33;;;;;;;;5075686;27;46178;-61
2023/03/21 05:41:33;;;;;;;;;7.00;7.00;;;;;;;;5069799;27;47169;-60
2023/03/21 05:43:59;;;;;;;;;4.00;4.00;;;;;;;;5059465;27;45510;-60
2023/03/21 05:46:24;;;;;;;;;8.00;6.00;;;;;;;;5060282;27;45540;-61
2023/03/21 05:48:50;;;;;;;;;6.00;6.00;;;;;;;;5073819;27;45483;-61
2023/03/21 05:51:15;;;;;;;;;6.67;5.67;;;;;;;;5057012;28;46332;-62
2023/03/21 05:53:40;;;;;;;;;5.00;5.00;;;;;;;;5068031;28;45636;-61
2023/03/21 05:56:06;;;;;;;;;7.00;7.00;;;;;;;;5062684;27;45531;-61
2023/03/21 05:58:31;;;;;;;;;5.33;5.33;;;;;;;;5075276;27;45478;-60
2023/03/21 06:00:56;;;;;;;;;9.67;7.00;;;;;;;;5062560;28;45422;-61
2023/03/21 06:03:22;;;;;;;;;7.67;6.33;;;;;;;;5073617;27;45639;-61
2023/03/21 06:05:47;;;;;;;;;9.00;8.00;;;;;;;;5067204;27;45496;-60
2023/03/21 06:08:12;;;;;;;;;10.67;9.67;;;;;;;;5059865;28;45568;-60
2023/03/21 06:10:37;;;;;;;;;8.00;8.00;;;;;;;;5062190;27;45483;-61
2023/03/21 06:13:03;;;;;;;;;11.33;10.33;;;;;;;;5073606;28;45738;-60
2023/03/21 06:15:28;;;;;;;;;8.67;8.00;;;;;;;;5075058;27;45536;-60
2023/03/21 06:17:54;;;;;;;;;8.00;8.00;;;;;;;;5074951;27;45461;-59
2023/03/21 06:20:19;;;;;;;;;6.00;6.00;;;;;;;;5074826;27;46109;-61
2023/03/21 06:22:44;;;;;;;;;7.00;7.00;;;;;;;;5072952;28;45352;-61
2023/03/21 06:25:09;;;;;;;;;7.00;7.00;;;;;;;;5067003;27;45440;-61
2023/03/21 06:27:35;;;;;;;;;10.33;9.33;;;;;;;;5074640;27;45569;-60
2023/03/21 06:30:01;;;;;;;;;6.00;6.00;;;;;;;;5074414;27;45563;-59
2023/03/21 06:32:26;;;;;;;;;7.00;7.00;;;;;;;;5074263;27;45505;-60
2023/03/21 06:34:52;;;;;;;;;6.00;6.00;;;;;;;;5065616;27;45491;-60
2023/03/21 06:37:17;;;;;;;;;10.00;10.00;;;;;;;;5074017;28;45521;-60
2023/03/21 06:39:42;;;;;;;;;6.00;6.00;;;;;;;;5072517;27;45544;-62
2023/03/21 06:42:08;;;;;;;;;7.67;7.67;;;;;;;;5053478;28;45733;-62
2023/03/21 06:44:33;;;;;;;;;11.00;10.00;;;;;;;;5064323;28;45453;-62
2023/03/21 06:46:58;;;;;;;;;10.00;10.00;;;;;;;;5074727;28;45503;-62
2023/03/21 06:49:23;;;;;;;;;10.00;10.00;;;;;;;;5074086;27;45493;-62
2023/03/21 06:51:49;;;;;;;;;9.00;7.33;;;;;;;;5068335;27;45474;-62
2023/03/21 06:54:16;;;;;;;;;10.00;9.00;;;;;;;;5067701;27;45552;-62
2023/03/21 06:56:41;;;;;;;;;7.00;7.00;;;;;;;;5074264;27;45611;-62
2023/03/21 06:59:07;;;;;;;;;10.00;10.00;;;;;;;;5071916;27;46982;-62
2023/03/21 07:01:32;;;;;;;;;10.33;9.33;;;;;;;;5058028;28;45958;-62
2023/03/21 07:03:58;;;;;;;;;10.33;8.67;;;;;;;;5065408;27;45682;-62
2023/03/21 07:06:25;;;;;;;;;9.33;9.33;;;;;;;;5062457;28;45574;-62
2023/03/21 07:08:50;;;;;;;;;13.00;11.67;;;;;;;;5071504;27;45558;-62
2023/03/21 07:11:16;;;;;;;;;11.00;9.33;;;;;;;;5066205;27;45471;-62
2023/03/21 07:13:41;;;;;;;;;9.67;7.67;;;;;;;;5052654;27;45471;-62
2023/03/21 07:16:06;;;;;;;;;11.00;11.00;;;;;;;;5050922;28;45697;-60
2023/03/21 07:18:32;;;;;;;;;10.67;9.33;;;;;;;;5048938;28;45561;-60
2023/03/21 07:20:57;;;;;;;;;10.33;9.00;;;;;;;;5072699;27;45621;-60
2023/03/21 07:23:24;;;;;;;;;11.00;11.00;;;;;;;;5072335;28;45515;-60
2023/03/21 07:25:50;;;;;;;;;9.33;9.33;;;;;;;;5057149;28;45617;-60
2023/03/21 07:28:16;;;;;;;;;10.67;10.67;;;;;;;;5068078;28;45534;-60
2023/03/21 07:30:41;;;;;;;;;10.33;10.33;;;;;;;;5059278;27;45892;-60
2023/03/21 07:33:07;;;;;;;;;12.00;10.00;;;;;;;;5073100;27;45454;-59
2023/03/21 07:35:33;;;;;;;;;13.33;10.00;;;;;;;;5073262;27;45708;-59
2023/03/21 07:37:58;;;;;;;;;12.33;11.33;;;;;;;;5072791;28;46009;-59
2023/03/21 07:40:23;;;;;;;;;11.00;10.00;;;;;;;;5072981;27;45399;-60
2023/03/21 07:42:49;;;;;;;;;15.33;12.67;;;;;;;;5073080;27;45552;-60
2023/03/21 07:45:19;;;;;;;;;14.00;11.33;;;;;;;;5073092;27;45509;-61
2023/03/21 07:47:45;;;;;;;;;10.00;10.00;;;;;;;;5074970;27;45434;-61
2023/03/21 07:50:10;;;;;;;;;10.00;10.00;;;;;;;;5070630;27;45514;-60
2023/03/21 07:52:36;;;;;;;;;12.33;12.33;;;;;;;;5070484;27;46312;-61
2023/03/21 07:55:02;;;;;;;;;12.50;12.00;;;;;;;;5076367;27;45485;-60
2023/03/21 07:57:27;;;;;;;;;14.00;13.00;;;;;;;;5068384;27;46054;-61
2023/03/21 07:59:52;;;;;;;;;13.33;12.00;;;;;;;;5074218;27;45477;-61
2023/03/21 08:02:17;;;;;;;;;12.67;12.33;;;;;;;;5076471;27;45538;-61
2023/03/21 08:04:43;;;;;;;;;13.00;12.67;;;;;;;;5076014;27;45524;-61
2023/03/21 08:07:08;;;;;;;;;13.00;12.00;;;;;;;;5061667;27;45572;-61
2023/03/21 08:09:34;;;;;;;;;12.33;12.33;;;;;;;;5076197;27;45793;-60
2023/03/21 08:11:59;;;;;;;;;19.00;16.33;;;;;;;;5076104;27;45415;-61
2023/03/21 08:14:24;;;;;;;;;12.67;12.00;;;;;;;;5076345;27;45430;-60
2023/03/21 08:16:49;;;;;;;;;12.00;11.00;;;;;;;;5075936;28;45446;-61
2023/03/21 08:19:17;;;;;;;;;13.00;13.00;;;;;;;;5075865;27;45469;-60
2023/03/21 08:21:42;;;;;;;;;20.00;20.00;;;;;;;;5075990;27;45513;-61
2023/03/21 08:24:07;;;;;;;;;12.00;10.67;;;;;;;;5068538;27;45589;-60
2023/03/21 08:26:33;;;;;;;;;11.00;10.33;;;;;;;;5064797;27;47132;-60
2023/03/21 08:28:58;;;;;;;;;13.33;11.33;;;;;;;;5075383;27;45469;-60
2023/03/21 08:31:24;;;;;;;;;13.00;11.00;;;;;;;;5075741;27;45594;-60
2023/03/21 08:33:53;;;;;;;;;10.33;10.33;;;;;;;;5075858;27;45576;-60
2023/03/21 08:36:19;;;;;;;;;14.67;13.67;;;;;;;;5075247;27;45936;-59
2023/03/21 08:38:47;;;;;;;;;15.33;14.00;;;;;;;;5075527;28;45513;-60
2023/03/21 08:41:12;;;;;;;;;12.33;12.33;;;;;;;;5075640;27;45546;-60
2023/03/21 08:43:37;;;;;;;;;14.33;13.67;;;;;;;;5075208;27;45407;-60
2023/03/21 08:46:03;;;;;;;;;13.00;11.00;;;;;;;;5075421;27;45559;-60
2023/03/21 08:48:28;;;;;;;;;18.33;15.00;;;;;;;;5075239;27;45490;-60
2023/03/21 08:50:53;;;;;;;;;14.67;13.00;;;;;;;;5075521;27;45474;-60
2023/03/21 08:53:18;;;;;;;;;14.33;14.33;;;;;;;;5063365;27;45654;-59
2023/03/21 08:55:44;;;;;;;;;11.00;11.00;;;;;;;;5075134;27;45509;-60
2023/03/21 08:58:10;;;;;;;;;18.67;18.00;;;;;;;;5074095;27;45506;-60
2023/03/21 09:00:35;;;;;;;;;13.33;13.00;;;;;;;;5075154;27;45598;-60
2023/03/21 09:03:00;;;;;;;;;12.00;12.00;;;;;;;;5075023;27;45600;-60
2023/03/21 09:05:27;;;;;;;;;10.33;9.00;;;;;;;;5071670;27;45499;-60
2023/03/21 09:07:52;;;;;;;;;10.33;10.33;;;;;;;;5064731;27;45435;-60
2023/03/21 09:10:20;;;;;;;;;14.33;11.67;;;;;;;;5073313;27;45431;-60
2023/03/21 09:12:45;;;;;;;;;13.33;11.33;;;;;;;;5062810;27;45621;-60
2023/03/21 09:15:11;;;;;;;;;12.00;11.33;;;;;;;;5074503;27;45508;-60
2023/03/21 09:17:40;;;;;;;;;11.00;10.67;;;;;;;;5074885;27;45328;-60
2023/03/21 09:20:10;;;;;;;;;10.33;10.00;;;;;;;;5056821;28;45606;-60
2023/03/21 09:22:35;;;;;;;;;11.67;10.33;;;;;;;;5060210;27;45447;-59
2023/03/21 09:25:01;;;;;;;;;6.67;6.67;;;;;;;;5053593;28;45482;-59
2023/03/21 09:27:27;;;;;;;;;9.00;8.67;;;;;;;;5071769;27;45496;-60
2023/03/21 09:29:52;;;;;;;;;10.00;8.33;;;;;;;;5048322;28;45510;-59
2023/03/21 09:32:19;;;;;;;;;7.33;6.00;;;;;;;;5069252;27;45475;-59
2023/03/21 09:34:44;;;;;;;;;8.33;8.33;;;;;;;;5074716;27;45443;-59
2023/03/21 09:37:10;;;;;;;;;8.33;7.33;;;;;;;;5074559;27;45584;-59
2023/03/21 09:39:36;;;;;;;;;7.00;5.67;;;;;;;;5060664;27;45559;-59
2023/03/21 09:42:19;;;;;;;;;7.67;7.67;;;;;;;;5067649;27;45815;-60
2023/03/21 09:44:45;;;;;;;;;6.67;6.00;;;;;;;;5073658;27;45763;-59
2023/03/21 09:47:20;;;;;;;;;10.00;10.00;;;;;;;;5074394;27;45458;-59
2023/03/21 09:49:50;;;;;;;;;7.00;7.00;;;;;;;;5074561;27;45668;-58
2023/03/21 09:52:22;;;;;;;;;14.33;14.33;;;;;;;;5074514;27;45441;-60
2023/03/21 09:54:48;;;;;;;;;12.33;12.33;;;;;;;;5074193;27;46042;-59
2023/03/21 09:57:31;;;;;;;;;8.00;4.67;;;;;;;;5074507;27;45568;-59
2023/03/21 09:59:58;;;;;;;;;5.33;5.33;;;;;;;;5069001;27;45466;-60
2023/03/21 10:02:35;;;;;;;;;7.33;7.33;;;;;;;;5034865;28;45545;-60
2023/03/21 10:05:01;;;;;;;;;8.33;6.33;;;;;;;;5072076;27;45502;-59
2023/03/21 10:07:29;;;;;;;;;7.33;7.33;;;;;;;;5060225;28;45511;-59
2023/03/21 10:09:56;;;;;;;;;8.00;6.33;;;;;;;;5074172;27;45464;-60
2023/03/21 10:12:22;;;;;;;;;9.67;7.00;;;;;;;;5055878;28;46084;-61
2023/03/21 10:14:49;;;;;;;;;9.67;9.00;;;;;;;;5074122;27;45504;-60
2023/03/21 10:17:21;;;;;;;;;7.67;7.67;;;;;;;;5073854;28;46122;-60
2023/03/21 10:19:48;;;;;;;;;7.67;7.67;;;;;;;;5074160;27;46311;-60
2023/03/21 10:22:14;;;;;;;;;7.33;7.33;;;;;;;;5073862;27;45505;-59
2023/03/21 10:24:39;;;;;;;;;4.00;4.00;;;;;;;;5073919;27;45558;-60
2023/03/21 10:27:04;;;;;;;;;5.33;5.33;;;;;;;;5074201;27;45449;-60
2023/03/21 10:29:52;;;;;;;;;4.00;4.00;;;;;;;;5070074;27;45610;-60
2023/03/21 10:32:17;;;;;;;;;9.33;6.00;;;;;;;;5068177;27;45521;-59
2023/03/21 10:34:45;;;;;;;;;8.00;6.67;;;;;;;;5073876;27;45930;-59
2023/03/21 10:37:11;;;;;;;;;13.33;10.33;;;;;;;;5055519;28;45594;-60
2023/03/21 10:39:44;;;;;;;;;10.67;10.67;;;;;;;;5073527;27;45583;-60
2023/03/21 10:42:18;;;;;;;;;6.67;5.67;;;;;;;;5073572;27;45519;-60
2023/03/21 10:44:46;;;;;;;;;8.00;7.00;;;;;;;;5073261;27;45511;-60
2023/03/21 10:47:11;;;;;;;;;7.67;6.33;;;;;;;;5059233;28;45587;-60
2023/03/21 10:49:37;;;;;;;;;13.67;13.33;;;;;;;;5065430;27;45452;-60
2023/03/21 10:52:04;;;;;;;;;6.00;6.00;;;;;;;;5060206;27;45464;-60
2023/03/21 10:54:30;;;;;;;;;7.00;7.00;;;;;;;;5068944;27;45550;-60
2023/03/21 10:56:56;;;;;;;;;6.00;6.00;;;;;;;;5073394;27;45517;-60
2023/03/21 10:59:22;;;;;;;;;9.67;9.33;;;;;;;;5058339;28;45502;-60
2023/03/21 11:01:48;;;;;;;;;9.33;9.33;;;;;;;;5065622;27;46110;-60
2023/03/21 11:04:15;;;;;;;;;8.33;8.33;;;;;;;;5064855;28;46358;-60
2023/03/21 11:06:43;;;;;;;;;9.00;8.00;;;;;;;;5040094;28;45557;-60
2023/03/21 11:09:13;;;;;;;;;8.33;7.33;;;;;;;;5045522;28;45546;-60
2023/03/21 11:11:40;;;;;;;;;7.00;7.00;;;;;;;;5055120;27;45494;-60
2023/03/21 11:14:08;;;;;;;;;14.33;12.33;;;;;;;;5072905;27;46394;-60
2023/03/21 11:16:38;;;;;;;;;11.67;7.67;;;;;;;;5049390;28;45735;-61
2023/03/21 11:19:12;;;;;;;;;10.33;10.33;;;;;;;;5073019;27;45527;-61
2023/03/21 11:21:37;;;;;;;;;10.00;10.00;;;;;;;;5072503;27;45597;-61
2023/03/21 11:24:03;;;;;;;;;7.33;7.33;;;;;;;;5069991;27;45454;-60
2023/03/21 11:26:36;;;;;;;;;5.00;5.00;;;;;;;;5061468;27;45549;-61
2023/03/21 11:29:11;;;;;;;;;6.33;5.00;;;;;;;;5072983;27;45466;-61
2023/03/21 11:31:39;;;;;;;;;5.67;5.67;;;;;;;;5072366;27;45807;-61
2023/03/21 11:34:06;;;;;;;;;7.67;6.67;;;;;;;;5072475;27;45672;-60
2023/03/21 11:36:33;;;;;;;;;7.00;6.00;;;;;;;;5072631;27;45479;-60
2023/03/21 11:39:02;;;;;;;;;7.00;7.00;;;;;;;;5072843;27;45511;-60
2023/03/21 11:41:29;;;;;;;;;6.67;5.33;;;;;;;;5072772;27;45641;-60
2023/03/21 11:43:54;;;;;;;;;7.00;7.00;;;;;;;;5072122;27;45407;-60
2023/03/21 11:46:24;;;;;;;;;9.00;6.33;;;;;;;;5063386;27;45425;-60
2023/03/21 11:48:50;;;;;;;;;8.33;7.00;;;;;;;;5072857;27;45505;-60
2023/03/21 11:51:39;;;;;;;;;7.00;7.00;;;;;;;;5072190;27;46146;-60
2023/03/21 11:54:18;;;;;;;;;5.00;5.00;;;;;;;;5054336;28;47166;-60
2023/03/21 11:56:49;;;;;;;;;6.00;6.00;;;;;;;;5072379;27;45536;-60
2023/03/21 11:59:15;;;;;;;;;6.00;5.33;;;;;;;;5072326;27;45509;-60
2023/03/21 12:01:46;;;;;;;;;7.00;6.00;;;;;;;;5072047;27;45572;-60
2023/03/21 12:04:19;;;;;;;;;7.67;7.00;;;;;;;;5072207;27;46117;-60
2023/03/21 12:06:53;;;;;;;;;7.33;7.00;;;;;;;;5058118;28;45477;-60
2023/03/21 12:09:19;;;;;;;;;7.67;6.33;;;;;;;;5072693;27;46177;-60
2023/03/21 12:12:04;;;;;;;;;9.00;8.00;;;;;;;;5072337;27;45466;-61
2023/03/21 12:14:56;;;;;;;;;8.33;8.00;;;;;;;;5040303;28;45904;-60
2023/03/21 12:17:36;;;;;;;;;7.00;7.00;;;;;;;;5050261;28;45624;-58
2023/03/21 12:20:09;;;;;;;;;8.00;6.00;;;;;;;;5032572;28;45571;-58
2023/03/21 12:22:34;;;;;;;;;5.67;5.67;;;;;;;;5071538;27;45573;-60
2023/03/21 12:25:05;;;;;;;;;8.00;7.00;;;;;;;;5047973;28;46140;-62
2023/03/21 12:27:53;;;;;;;;;10.00;8.00;;;;;;;;5072126;27;45493;-60
2023/03/21 12:30:26;;;;;;;;;6.00;6.00;;;;;;;;5063075;27;45605;-59
2023/03/21 12:33:06;;;;;;;;;8.33;5.67;;;;;;;;5073512;27;45596;-59
2023/03/21 12:35:41;;;;;;;;;5.67;5.67;;;;;;;;5063223;27;45510;-61
2023/03/21 12:38:18;;;;;;;;;5.00;5.00;;;;;;;;5054472;28;45458;-60
2023/03/21 12:40:49;;;;;;;;;6.33;5.00;;;;;;;;5043467;28;45551;-60
2023/03/21 12:43:21;;;;;;;;;6.00;5.00;;;;;;;;5066654;27;45482;-60
2023/03/21 12:45:49;;;;;;;;;7.00;7.00;;;;;;;;5068851;27;46205;-58
2023/03/21 12:48:17;;;;;;;;;6.33;6.33;;;;;;;;5048747;28;45519;-58
2023/03/21 12:50:43;;;;;;;;;14.33;10.67;;;;;;;;5076984;27;45471;-58
2023/03/21 12:53:20;;;;;;;;;11.67;9.00;;;;;;;;5076551;27;45596;-58
2023/03/21 12:55:45;;;;;;;;;7.00;7.00;;;;;;;;5069871;27;46260;-58
2023/03/21 12:58:18;;;;;;;;;7.67;7.00;;;;;;;;5074101;28;45509;-58
2023/03/21 13:00:54;;;;;;;;;6.00;6.00;;;;;;;;5076970;27;45544;-59
2023/03/21 13:03:26;;;;;;;;;7.33;6.67;;;;;;;;5070868;28;45439;-58
2023/03/21 13:05:56;;;;;;;;;6.33;6.00;;;;;;;;5059067;28;45485;-59
2023/03/21 13:08:25;;;;;;;;;7.00;7.00;;;;;;;;5054262;28;45439;-57
2023/03/21 13:10:50;;;;;;;;;6.33;6.33;;;;;;;;5048639;28;45779;-57
2023/03/21 13:13:25;;;;;;;;;6.00;6.00;;;;;;;;5076166;27;45574;-58
2023/03/21 13:15:58;;;;;;;;;4.33;4.33;;;;;;;;5064816;28;45502;-57
2023/03/21 13:18:42;;;;;;;;;8.67;6.33;;;;;;;;5076019;27;45435;-57
2023/03/21 13:21:12;;;;;;;;;13.67;12.33;;;;;;;;5049285;27;45470;-57
2023/03/21 13:23:38;;;;;;;;;6.00;6.00;;;;;;;;5076022;28;45475;-57
2023/03/21 13:26:07;;;;;;;;;4.00;3.67;;;;;;;;5057493;28;48310;-58
2023/03/21 13:28:33;;;;;;;;;3.00;3.00;;;;;;;;5075183;27;45489;-57
2023/03/21 13:31:16;;;;;;;;;3.00;3.00;;;;;;;;5075502;27;45507;-58
2023/03/21 13:33:44;;;;;;;;;3.00;3.00;;;;;;;;5076006;27;45499;-58
2023/03/21 13:36:13;;;;;;;;;3.67;3.67;;;;;;;;5060444;27;45545;-58
2023/03/21 13:38:39;;;;;;;;;5.67;4.00;;;;;;;;5072256;27;45564;-58
2023/03/21 13:41:11;;;;;;;;;4.00;3.67;;;;;;;;5075789;27;45493;-58
2023/03/21 13:43:43;;;;;;;;;5.00;5.00;;;;;;;;5075909;28;45403;-57
2023/03/21 13:46:10;;;;;;;;;4.33;3.33;;;;;;;;5074861;27;45482;-58
2023/03/21 13:48:42;;;;;;;;;4.00;3.00;;;;;;;;5075536;27;45454;-58
2023/03/21 13:51:07;;;;;;;;;4.67;4.33;;;;;;;;5075467;27;45537;-58
2023/03/21 13:53:33;;;;;;;;;5.00;5.00;;;;;;;;5063570;27;45408;-58
2023/03/21 13:56:18;;;;;;;;;3.67;3.33;;;;;;;;5075182;27;46010;-57
2023/03/21 13:58:43;;;;;;;;;4.00;4.00;;;;;;;;5075142;28;45505;-58
2023/03/21 14:01:24;;;;;;;;;3.00;3.00;;;;;;;;5075190;27;45472;-58
2023/03/21 14:03:55;;;;;;;;;5.00;3.67;;;;;;;;5075308;27;45541;-58
2023/03/21 14:06:30;;;;;;;;;6.67;6.67;;;;;;;;5045377;28;45658;-58
2023/03/21 14:08:56;;;;;;;;;5.33;5.33;;;;;;;;5055327;27;45570;-58
2023/03/21 14:11:22;;;;;;;;;3.67;2.67;;;;;;;;5045925;28;45491;-58
2023/03/21 14:13:48;;;;;;;;;5.00;4.00;;;;;;;;5067661;28;45554;-58
2023/03/21 14:16:17;;;;;;;;;5.67;5.00;;;;;;;;5074745;28;45485;-58
2023/03/21 14:18:42;;;;;;;;;3.00;3.00;;;;;;;;5064684;27;45496;-58
2023/03/21 14:21:21;;;;;;;;;6.00;5.00;;;;;;;;5075354;28;45553;-57
2023/03/21 14:23:53;;;;;;;;;5.67;4.67;;;;;;;;5075125;27;45611;-58
2023/03/21 14:26:19;;;;;;;;;4.33;4.33;;;;;;;;5074943;27;46155;-58
2023/03/21 14:28:47;;;;;;;;;3.33;3.33;;;;;;;;5074851;27;45486;-58
2023/03/21 14:31:14;;;;;;;;;4.00;4.00;;;;;;;;5074785;27;45557;-58
2023/03/21 14:33:43;;;;;;;;;7.00;5.67;;;;;;;;5075099;27;45699;-58
2023/03/21 14:36:19;;;;;;;;;5.00;5.00;;;;;;;;5074395;27;45783;-58
2023/03/21 14:38:53;;;;;;;;;5.00;3.67;;;;;;;;5074411;27;45426;-58